Time,TemperatureF,DewpointF,PressureIn,WindDirection,WindDirectionDegrees,WindSpeedMPH,WindSpeedGustMPH,Humidity,HourlyPrecipIn,Conditions,Clouds,dailyrainin,SoftwareType,DateUTC
2013-07-26 00:09:00,61.3,58.6,29.94,ESE,112,2.7,-999.0,91,-99.99,,,0.00,Acu-Link.com,2013-07-26 04:09:00,
2013-07-26 00:24:00,61.5,58.8,29.93,ENE,67,2.7,-999.0,91,-99.99,,,0.00,Acu-Link.com,2013-07-26 04:24:00,
2013-07-26 00:39:00,61.5,58.8,29.93,ENE,67,2.7,-999.0,91,-99.99,,,0.00,Acu-Link.com,2013-07-26 04:39:00,
2013-07-26 00:54:00,61.5,58.8,29.93,SSW,202,2.2,-999.0,91,-99.99,,,0.01,Acu-Link.com,2013-07-26 04:54:00,
2013-07-26 01:09:00,61.5,58.8,29.93,East,90,1.7,-999.0,91,-99.99,,,0.02,Acu-Link.com,2013-07-26 05:09:00,
2013-07-26 01:24:00,61.5,58.8,29.93,NE,45,3.2,-999.0,91,-99.99,,,0.03,Acu-Link.com,2013-07-26 05:24:00,
2013-07-26 01:39:00,61.5,59.2,29.92,ESE,112,2.7,-999.0,92,-99.99,,,0.04,Acu-Link.com,2013-07-26 05:39:00,
2013-07-26 01:54:00,61.5,59.2,29.92,NNE,22,2.7,-999.0,92,-99.99,,,0.04,Acu-Link.com,2013-07-26 05:54:00,
2013-07-26 02:10:00,61.5,59.2,29.92,ESE,112,4.2,-999.0,92,-99.99,,,0.04,Acu-Link.com,2013-07-26 06:10:00,
2013-07-26 02:25:00,61.5,59.2,29.91,NE,45,3.2,-999.0,92,-99.99,,,0.04,Acu-Link.com,2013-07-26 06:25:00,
2013-07-26 02:40:00,61.5,59.2,29.90,SSE,157,1.1,-999.0,92,-99.99,,,0.05,Acu-Link.com,2013-07-26 06:40:00,
2013-07-26 02:55:00,61.7,59.7,29.90,NNE,22,2.2,-999.0,93,-99.99,,,0.06,Acu-Link.com,2013-07-26 06:55:00,
2013-07-26 03:10:00,61.9,59.9,29.89,East,90,3.7,-999.0,93,-99.99,,,0.07,Acu-Link.com,2013-07-26 07:10:00,
2013-07-26 03:25:00,61.9,59.9,29.89,ESE,112,2.2,-999.0,93,-99.99,,,0.07,Acu-Link.com,2013-07-26 07:25:00,
2013-07-26 03:40:00,61.9,59.9,29.89,South,180,2.2,-999.0,93,-99.99,,,0.12,Acu-Link.com,2013-07-26 07:40:00,
2013-07-26 03:55:00,61.9,59.9,29.89,ENE,67,2.2,-999.0,93,-99.99,,,0.15,Acu-Link.com,2013-07-26 07:55:00,
2013-07-26 04:10:00,62.1,60.0,29.88,East,90,1.1,-999.0,93,-99.99,,,0.18,Acu-Link.com,2013-07-26 08:10:00,
2013-07-26 04:26:00,62.1,60.0,29.89,ESE,112,3.7,-999.0,93,-99.99,,,0.21,Acu-Link.com,2013-07-26 08:26:00,
2013-07-26 04:41:00,62.1,60.0,29.88,West,270,2.2,-999.0,93,-99.99,,,0.24,Acu-Link.com,2013-07-26 08:41:00,
2013-07-26 04:56:00,61.9,59.9,29.88,NNE,22,2.2,-999.0,93,-99.99,,,0.25,Acu-Link.com,2013-07-26 08:56:00,
2013-07-26 05:11:00,61.9,59.9,29.88,SE,135,1.7,-999.0,93,-99.99,,,0.26,Acu-Link.com,2013-07-26 09:11:00,
2013-07-26 05:26:00,61.7,59.7,29.88,ESE,112,3.7,-999.0,93,-99.99,,,0.26,Acu-Link.com,2013-07-26 09:26:00,
2013-07-26 05:41:00,61.7,59.7,29.87,ESE,112,2.7,-999.0,93,-99.99,,,0.27,Acu-Link.com,2013-07-26 09:41:00,
2013-07-26 05:56:00,61.9,60.2,29.86,ENE,67,3.7,-999.0,94,-99.99,,,0.28,Acu-Link.com,2013-07-26 09:56:00,
2013-07-26 06:11:00,61.9,60.2,29.86,SW,225,5.3,-999.0,94,-99.99,,,0.29,Acu-Link.com,2013-07-26 10:11:00,
2013-07-26 06:41:00,62.1,60.4,29.86,ENE,67,4.7,-999.0,94,-99.99,,,0.30,Acu-Link.com,2013-07-26 10:41:00,
2013-07-26 06:57:00,62.1,60.4,29.86,North,0,6.3,-999.0,94,-99.99,,,0.31,Acu-Link.com,2013-07-26 10:57:00,
2013-07-26 07:12:00,62.1,60.4,29.85,NNE,22,5.3,-999.0,94,-99.99,,,0.31,Acu-Link.com,2013-07-26 11:12:00,
2013-07-26 07:27:00,62.1,60.4,29.85,East,90,4.2,-999.0,94,-99.99,,,0.31,Acu-Link.com,2013-07-26 11:27:00,
2013-07-26 07:42:00,62.2,60.4,29.84,NW,315,2.2,-999.0,94,-99.99,,,0.31,Acu-Link.com,2013-07-26 11:42:00,
2013-07-26 07:57:00,62.4,60.6,29.85,ENE,67,3.7,-999.0,94,-99.99,,,0.32,Acu-Link.com,2013-07-26 11:57:00,
2013-07-26 08:12:00,62.8,60.7,29.84,ENE,67,4.7,-999.0,93,-99.99,,,0.32,Acu-Link.com,2013-07-26 12:12:00,
2013-07-26 08:28:00,63.0,60.9,29.85,SW,225,1.7,-999.0,93,-99.99,,,0.33,Acu-Link.com,2013-07-26 12:28:00,
2013-07-26 08:43:00,63.0,60.9,29.85,NE,45,3.7,-999.0,93,-99.99,,,0.33,Acu-Link.com,2013-07-26 12:43:00,
2013-07-26 08:58:00,63.0,60.9,29.85,East,90,4.7,-999.0,93,-99.99,,,0.33,Acu-Link.com,2013-07-26 12:58:00,
2013-07-26 09:13:00,63.1,61.0,29.85,NNE,22,3.7,-999.0,93,-99.99,,,0.33,Acu-Link.com,2013-07-26 13:13:00,
2013-07-26 09:28:00,63.3,60.9,29.84,ESE,112,3.7,-999.0,92,-99.99,,,0.33,Acu-Link.com,2013-07-26 13:28:00,
2013-07-26 09:43:00,63.5,61.1,29.84,WSW,247,1.7,-999.0,92,-99.99,,,0.33,Acu-Link.com,2013-07-26 13:43:00,
2013-07-26 09:58:00,63.5,61.1,29.85,East,90,3.7,-999.0,92,-99.99,,,0.33,Acu-Link.com,2013-07-26 13:58:00,
2013-07-26 10:13:00,63.5,61.1,29.85,East,90,2.7,-999.0,92,-99.99,,,0.33,Acu-Link.com,2013-07-26 14:13:00,
2013-07-26 10:28:00,63.5,61.1,29.85,East,90,2.7,-999.0,92,-99.99,,,0.33,Acu-Link.com,2013-07-26 14:28:00,
2013-07-26 10:44:00,64.4,61.7,29.84,West,270,2.7,-999.0,91,-99.99,,,0.33,Acu-Link.com,2013-07-26 14:44:00,
2013-07-26 10:59:00,65.8,62.8,29.84,SSW,202,4.2,-999.0,90,-99.99,,,0.34,Acu-Link.com,2013-07-26 14:59:00,
2013-07-26 11:14:00,65.3,62.0,29.85,West,270,5.3,-999.0,89,-99.99,,,0.34,Acu-Link.com,2013-07-26 15:14:00,
2013-07-26 11:29:00,65.1,61.8,29.84,SW,225,2.2,-999.0,89,-99.99,,,0.34,Acu-Link.com,2013-07-26 15:29:00,
2013-07-26 11:44:00,65.1,62.1,29.85,NE,45,4.2,-999.0,90,-99.99,,,0.34,Acu-Link.com,2013-07-26 15:44:00,
2013-07-26 11:59:00,64.9,61.9,29.84,NNE,22,4.7,-999.0,90,-99.99,,,0.34,Acu-Link.com,2013-07-26 15:59:00,
2013-07-26 12:14:00,66.2,62.9,29.84,WSW,247,2.7,-999.0,89,-99.99,,,0.34,Acu-Link.com,2013-07-26 16:14:00,
2013-07-26 12:29:00,66.0,62.3,29.84,South,180,4.2,-999.0,88,-99.99,,,0.34,Acu-Link.com,2013-07-26 16:29:00,
2013-07-26 12:44:00,66.4,62.7,29.84,North,0,8.3,-999.0,88,-99.99,,,0.34,Acu-Link.com,2013-07-26 16:44:00,
2013-07-26 13:00:00,67.1,63.1,29.83,WSW,247,4.7,-999.0,87,-99.99,,,0.34,Acu-Link.com,2013-07-26 17:00:00,
2013-07-26 13:15:00,67.1,62.8,29.83,ENE,67,8.3,-999.0,86,-99.99,,,0.34,Acu-Link.com,2013-07-26 17:15:00,
2013-07-26 13:30:00,68.2,63.5,29.83,ESE,112,2.2,-999.0,85,-99.99,,,0.34,Acu-Link.com,2013-07-26 17:30:00,
2013-07-26 13:45:00,68.0,63.3,29.83,West,270,3.2,-999.0,85,-99.99,,,0.34,Acu-Link.com,2013-07-26 17:45:00,
2013-07-26 14:00:00,68.0,63.3,29.83,SW,225,2.2,-999.0,85,-99.99,,,0.34,Acu-Link.com,2013-07-26 18:00:00,
2013-07-26 14:15:00,67.6,63.3,29.84,SSW,202,5.8,-999.0,86,-99.99,,,0.34,Acu-Link.com,2013-07-26 18:15:00,
2013-07-26 14:30:00,67.6,63.3,29.84,WSW,247,4.7,-999.0,86,-99.99,,,0.34,Acu-Link.com,2013-07-26 18:30:00,
2013-07-26 14:45:00,67.5,63.8,29.84,South,180,1.7,-999.0,88,-99.99,,,0.34,Acu-Link.com,2013-07-26 18:45:00,
2013-07-26 15:00:00,67.8,64.1,29.84,WNW,292,4.7,-999.0,88,-99.99,,,0.34,Acu-Link.com,2013-07-26 19:00:00,
2013-07-26 15:16:00,69.3,65.3,29.85,WNW,292,2.7,-999.0,87,-99.99,,,0.34,Acu-Link.com,2013-07-26 19:16:00,
2013-07-26 15:31:00,71.1,66.0,29.84,NW,315,2.2,-999.0,84,-99.99,,,0.34,Acu-Link.com,2013-07-26 19:31:00,
2013-07-26 15:46:00,70.3,64.9,29.85,South,180,2.7,-999.0,83,-99.99,,,0.34,Acu-Link.com,2013-07-26 19:46:00,
2013-07-26 16:31:00,70.2,65.8,29.85,WNW,292,3.7,-999.0,86,-99.99,,,0.34,Acu-Link.com,2013-07-26 20:31:00,
2013-07-26 16:46:00,69.8,65.1,29.86,SSW,202,3.2,-999.0,85,-99.99,,,0.34,Acu-Link.com,2013-07-26 20:46:00,
2013-07-26 17:01:00,69.1,64.4,29.87,East,90,1.7,-999.0,85,-99.99,,,0.34,Acu-Link.com,2013-07-26 21:01:00,
2013-07-26 17:16:00,69.1,64.7,29.88,SSW,202,2.7,-999.0,86,-99.99,,,0.34,Acu-Link.com,2013-07-26 21:16:00,
2013-07-26 17:47:00,69.4,66.0,29.88,SW,225,2.2,-999.0,89,-99.99,,,0.42,Acu-Link.com,2013-07-26 21:47:00,
2013-07-26 18:02:00,69.3,65.9,29.88,SW,225,2.2,-999.0,89,-99.99,,,0.48,Acu-Link.com,2013-07-26 22:02:00,
2013-07-26 18:32:00,68.4,65.3,29.89,North,0,0.0,-999.0,90,-99.99,,,0.50,Acu-Link.com,2013-07-26 22:32:00,
2013-07-26 18:47:00,68.0,65.0,29.89,SW,225,0.0,-999.0,90,-99.99,,,0.53,Acu-Link.com,2013-07-26 22:47:00,
2013-07-26 19:02:00,67.6,64.6,29.89,West,270,0.0,-999.0,90,-99.99,,,0.57,Acu-Link.com,2013-07-26 23:02:00,
2013-07-26 19:17:00,67.3,64.3,29.89,SW,225,0.0,-999.0,90,-99.99,,,0.58,Acu-Link.com,2013-07-26 23:17:00,
2013-07-26 19:32:00,66.9,64.2,29.90,ENE,67,0.0,-999.0,91,-99.99,,,0.58,Acu-Link.com,2013-07-26 23:32:00,
2013-07-26 19:47:00,66.7,64.0,29.91,South,180,0.0,-999.0,91,-99.99,,,0.58,Acu-Link.com,2013-07-26 23:47:00,
2013-07-26 20:03:00,66.4,63.7,29.91,South,180,1.1,-999.0,91,-99.99,,,0.58,Acu-Link.com,2013-07-27 00:03:00,
2013-07-26 20:18:00,66.0,63.6,29.91,South,180,0.0,-999.0,92,-99.99,,,0.58,Acu-Link.com,2013-07-27 00:18:00,
2013-07-26 20:33:00,65.8,63.4,29.92,South,180,0.0,-999.0,92,-99.99,,,0.58,Acu-Link.com,2013-07-27 00:33:00,
2013-07-26 20:48:00,65.7,63.3,29.92,WSW,247,1.1,-999.0,92,-99.99,,,0.58,Acu-Link.com,2013-07-27 00:48:00,
2013-07-26 21:03:00,65.5,63.1,29.93,West,270,0.0,-999.0,92,-99.99,,,0.58,Acu-Link.com,2013-07-27 01:03:00,
2013-07-26 21:18:00,65.3,62.9,29.92,SW,225,0.0,-999.0,92,-99.99,,,0.59,Acu-Link.com,2013-07-27 01:18:00,
2013-07-26 21:33:00,65.1,62.7,29.92,SW,225,0.0,-999.0,92,-99.99,,,0.59,Acu-Link.com,2013-07-27 01:33:00,
2013-07-26 21:48:00,64.9,62.5,29.93,WSW,247,0.0,-999.0,92,-99.99,,,0.59,Acu-Link.com,2013-07-27 01:48:00,
2013-07-26 22:03:00,64.4,62.0,29.93,West,270,0.0,-999.0,92,-99.99,,,0.59,Acu-Link.com,2013-07-27 02:03:00,
2013-07-26 22:19:00,64.0,61.6,29.94,WSW,247,0.0,-999.0,92,-99.99,,,0.59,Acu-Link.com,2013-07-27 02:19:00,
2013-07-26 22:34:00,63.7,61.6,29.94,SW,225,0.0,-999.0,93,-99.99,,,0.59,Acu-Link.com,2013-07-27 02:34:00,
2013-07-26 22:49:00,63.1,61.0,29.93,West,270,0.0,-999.0,93,-99.99,,,0.59,Acu-Link.com,2013-07-27 02:49:00,
2013-07-26 23:04:00,63.0,60.9,29.94,SSW,202,2.2,-999.0,93,-99.99,,,0.59,Acu-Link.com,2013-07-27 03:04:00,
2013-07-26 23:19:00,62.6,60.5,29.94,SW,225,0.0,-999.0,93,-99.99,,,0.59,Acu-Link.com,2013-07-27 03:19:00,
2013-07-26 23:34:00,62.2,60.1,29.94,West,270,0.0,-999.0,93,-99.99,,,0.59,Acu-Link.com,2013-07-27 03:34:00,
2013-07-26 23:49:00,61.7,59.7,29.94,West,270,0.0,-999.0,93,-99.99,,,0.59,Acu-Link.com,2013-07-27 03:49:00,